Time;durP1;ratioP1;P1;durP2;ratioP2;P2;SDS_P1;SDS_P2;PMS_P1;PMS_P2;Temp;Humidity;BMP_temperature;BMP_pressure;BME280_temperature;BME280_humidity;BME280_pressure;Samples;Min_cycle;Max_cycle;Signal;HPM_P1;HPM_P2
2022/08/07 00:00:45;;;;;;;12.30;10.13;;;15.50;99.90;;;;;;5044155;28;20200;-67
2022/08/07 00:03:12;;;;;;;13.20;9.60;;;15.50;99.90;;;;;;5051454;28;20206;-68
2022/08/07 00:05:40;;;;;;;13.35;9.68;;;15.40;99.90;;;;;;5048091;28;20230;-69
2022/08/07 00:08:07;;;;;;;11.05;7.75;;;15.40;99.90;;;;;;5030834;28;20203;-69
2022/08/07 00:10:34;;;;;;;15.13;9.82;;;15.40;99.90;;;;;;5040033;28;21075;-69
2022/08/07 00:13:03;;;;;;;11.73;9.25;;;15.30;99.90;;;;;;5037231;28;20204;-67
2022/08/07 00:15:31;;;;;;;12.00;8.82;;;15.30;99.90;;;;;;5051497;28;20310;-69
2022/08/07 00:17:58;;;;;;;11.88;9.90;;;15.30;99.90;;;;;;5037753;28;20217;-67
2022/08/07 00:20:25;;;;;;;14.85;9.52;;;15.30;99.90;;;;;;5035587;28;20209;-68
2022/08/07 00:22:53;;;;;;;11.05;9.77;;;15.30;99.90;;;;;;5046765;28;20663;-70
2022/08/07 00:25:22;;;;;;;11.82;9.68;;;15.20;99.90;;;;;;5038331;28;20303;-69
2022/08/07 00:27:49;;;;;;;11.95;8.80;;;15.20;99.90;;;;;;5036626;28;20227;-69
2022/08/07 00:30:16;;;;;;;11.23;8.93;;;15.20;99.90;;;;;;5043588;28;20196;-68
2022/08/07 00:32:43;;;;;;;10.68;9.55;;;15.20;99.90;;;;;;5050881;28;20614;-67
2022/08/07 00:35:09;;;;;;;11.85;10.02;;;15.20;99.90;;;;;;5030129;28;20303;-68
2022/08/07 00:37:36;;;;;;;13.27;11.70;;;15.20;99.90;;;;;;5042771;28;20232;-68
2022/08/07 00:40:06;;;;;;;13.85;10.98;;;15.20;99.90;;;;;;5044264;28;20227;-67
2022/08/07 00:42:33;;;;;;;14.43;9.73;;;15.20;99.90;;;;;;5037764;28;20672;-68
2022/08/07 00:45:00;;;;;;;11.70;9.80;;;15.20;99.90;;;;;;5035260;28;20235;-68
2022/08/07 00:47:27;;;;;;;18.15;10.60;;;15.20;99.90;;;;;;5037970;28;20196;-69
2022/08/07 00:49:54;;;;;;;14.88;11.23;;;15.20;99.90;;;;;;5033773;28;20208;-68
2022/08/07 00:52:21;;;;;;;13.50;10.20;;;15.20;99.90;;;;;;5035446;28;20232;-68
2022/08/07 00:54:48;;;;;;;13.10;9.70;;;15.20;99.90;;;;;;5045061;28;20271;-68
2022/08/07 00:57:16;;;;;;;15.63;10.13;;;15.10;99.90;;;;;;5041777;28;20259;-69
2022/08/07 00:59:44;;;;;;;13.75;10.80;;;15.10;99.90;;;;;;5039333;28;20231;-68
2022/08/07 01:02:11;;;;;;;11.57;10.07;;;15.10;99.90;;;;;;5039275;28;20657;-69
2022/08/07 01:04:39;;;;;;;15.60;11.57;;;15.00;99.90;;;;;;5037830;28;20250;-68
2022/08/07 01:07:06;;;;;;;15.48;10.65;;;15.00;99.90;;;;;;5033375;28;20207;-69
2022/08/07 01:09:34;;;;;;;12.32;9.73;;;15.00;99.90;;;;;;5036087;28;20199;-66
2022/08/07 01:12:01;;;;;;;14.80;11.32;;;15.00;99.90;;;;;;5043932;28;20203;-68
2022/08/07 01:14:29;;;;;;;17.02;11.27;;;15.00;99.90;;;;;;5034847;28;20314;-68
2022/08/07 01:16:57;;;;;;;15.20;11.40;;;15.00;99.90;;;;;;5042629;28;20684;-68
2022/08/07 01:19:26;;;;;;;12.05;9.65;;;15.00;99.90;;;;;;5044482;28;20215;-69
2022/08/07 01:21:55;;;;;;;13.90;11.70;;;15.00;99.90;;;;;;5043498;28;20688;-69
2022/08/07 01:24:22;;;;;;;15.20;11.80;;;14.90;99.90;;;;;;5041142;28;20224;-68
2022/08/07 01:26:50;;;;;;;15.45;10.75;;;14.90;99.90;;;;;;5045943;28;20231;-69
2022/08/07 01:29:17;;;;;;;16.35;11.80;;;14.90;99.90;;;;;;5039624;28;20547;-69
2022/08/07 01:31:45;;;;;;;15.32;11.00;;;14.90;99.90;;;;;;5046683;28;20204;-68
2022/08/07 01:34:13;;;;;;;16.52;10.93;;;14.90;99.90;;;;;;5048404;28;20216;-68
2022/08/07 01:36:40;;;;;;;15.90;12.10;;;14.90;99.90;;;;;;5047707;28;20273;-69
2022/08/07 01:39:08;;;;;;;16.13;11.98;;;14.90;99.90;;;;;;5032343;28;20277;-69
2022/08/07 01:41:36;;;;;;;16.50;14.10;;;14.90;99.90;;;;;;5027532;28;20291;-69
2022/08/07 01:44:04;;;;;;;22.80;12.73;;;14.90;99.90;;;;;;5037517;28;20297;-69
2022/08/07 01:46:31;;;;;;;16.98;12.85;;;14.90;99.90;;;;;;5049567;28;20192;-67
2022/08/07 01:48:58;;;;;;;14.38;11.25;;;14.90;99.90;;;;;;5046799;28;20257;-69
2022/08/07 01:51:26;;;;;;;13.93;12.40;;;14.90;99.90;;;;;;5047483;28;20299;-68
2022/08/07 01:53:57;;;;;;;21.02;14.55;;;14.80;99.90;;;;;;5048672;28;20729;-68
2022/08/07 01:56:29;;;;;;;17.23;13.77;;;14.80;99.90;;;;;;5036283;28;20300;-69
2022/08/07 01:59:01;;;;;;;13.80;11.75;;;14.70;99.90;;;;;;5049073;28;20607;-69
2022/08/07 02:01:34;;;;;;;15.65;11.65;;;14.70;99.90;;;;;;5045030;28;20208;-69
2022/08/07 02:04:07;;;;;;;17.30;12.57;;;14.60;99.90;;;;;;5047704;28;20708;-68
2022/08/07 02:06:35;;;;;;;16.50;12.00;;;14.60;99.90;;;;;;5036331;28;20224;-67
2022/08/07 02:09:06;;;;;;;13.63;11.95;;;14.70;99.90;;;;;;5030839;28;20228;-69
2022/08/07 02:11:38;;;;;;;16.00;14.13;;;14.70;99.90;;;;;;5053268;28;20200;-68
2022/08/07 02:14:07;;;;;;;18.25;12.70;;;14.70;99.90;;;;;;5046061;28;20234;-68
2022/08/07 02:16:38;;;;;;;15.43;13.68;;;14.70;99.90;;;;;;5056348;28;20291;-68
2022/08/07 02:19:09;;;;;;;14.75;12.88;;;14.70;99.90;;;;;;5057187;28;20230;-67
2022/08/07 02:21:38;;;;;;;19.58;15.02;;;14.70;99.90;;;;;;5032240;28;20199;-68
2022/08/07 02:24:07;;;;;;;21.77;16.02;;;14.60;99.90;;;;;;5034656;28;20714;-68
2022/08/07 02:26:37;;;;;;;21.67;13.95;;;14.60;99.90;;;;;;5038120;28;20218;-67
2022/08/07 02:29:08;;;;;;;18.55;13.07;;;14.60;99.90;;;;;;5031591;28;20644;-67
2022/08/07 02:31:36;;;;;;;17.90;14.90;;;14.60;99.90;;;;;;5025083;28;20215;-68
2022/08/07 02:34:06;;;;;;;19.35;13.82;;;14.60;99.90;;;;;;5038177;28;20248;-68
2022/08/07 02:36:34;;;;;;;18.92;12.75;;;14.60;99.90;;;;;;5037223;28;20859;-68
2022/08/07 02:39:04;;;;;;;17.08;12.18;;;14.60;99.90;;;;;;5027790;28;20243;-68
2022/08/07 02:41:32;;;;;;;18.25;12.70;;;14.60;99.90;;;;;;5037142;28;20301;-68
2022/08/07 02:44:01;;;;;;;21.13;14.10;;;14.60;99.90;;;;;;5030584;28;20271;-68
2022/08/07 02:46:31;;;;;;;14.90;12.30;;;14.60;99.90;;;;;;5027708;28;20200;-69
2022/08/07 02:48:58;;;;;;;18.67;12.50;;;14.60;99.90;;;;;;5028603;28;20210;-67
2022/08/07 02:51:28;;;;;;;18.35;14.73;;;14.60;99.90;;;;;;5024771;28;21452;-68
2022/08/07 02:53:57;;;;;;;17.65;13.43;;;14.50;99.90;;;;;;5027478;28;20695;-67
2022/08/07 02:56:29;;;;;;;20.20;14.15;;;14.50;99.90;;;;;;5031008;28;20663;-67
2022/08/07 02:58:59;;;;;;;18.90;12.55;;;14.50;99.90;;;;;;5030423;28;20647;-67
2022/08/07 03:01:28;;;;;;;19.35;13.23;;;14.50;99.90;;;;;;5031357;28;20196;-67
2022/08/07 03:03:56;;;;;;;16.75;14.27;;;14.50;99.90;;;;;;5019942;28;20215;-67
2022/08/07 03:06:24;;;;;;;19.35;13.75;;;14.50;99.90;;;;;;5035126;28;21511;-67
2022/08/07 03:08:51;;;;;;;17.08;12.43;;;14.50;99.90;;;;;;5033353;28;20203;-67
2022/08/07 03:11:19;;;;;;;18.15;12.57;;;14.50;99.90;;;;;;5017963;28;20207;-68
2022/08/07 03:13:46;;;;;;;21.38;16.33;;;14.40;99.90;;;;;;5034851;28;20593;-67
2022/08/07 03:16:13;;;;;;;22.30;17.58;;;14.40;99.90;;;;;;5023837;28;20201;-67
2022/08/07 03:18:41;;;;;;;22.88;16.88;;;14.30;99.90;;;;;;5036741;28;20219;-68
2022/08/07 03:21:09;;;;;;;25.38;17.95;;;14.30;99.90;;;;;;5032378;28;20225;-68
2022/08/07 03:23:38;;;;;;;23.13;17.17;;;14.20;99.90;;;;;;5045018;28;20201;-68
2022/08/07 03:26:06;;;;;;;25.10;17.92;;;14.20;99.90;;;;;;5052549;28;20250;-68
2022/08/07 03:28:35;;;;;;;21.63;17.08;;;14.10;99.90;;;;;;5049725;28;20219;-67
2022/08/07 03:31:19;;;;;;;27.02;18.48;;;14.00;99.90;;;;;;5040665;28;20204;-68
2022/08/07 03:33:50;;;;;;;23.08;17.67;;;14.00;99.90;;;;;;5046567;28;20234;-68
2022/08/07 03:36:18;;;;;;;21.60;14.63;;;13.90;99.90;;;;;;5032872;28;20227;-68
2022/08/07 03:38:47;;;;;;;24.63;17.73;;;13.90;99.90;;;;;;5045940;28;20240;-67
2022/08/07 03:41:15;;;;;;;21.98;16.70;;;13.80;99.90;;;;;;5033196;28;20211;-67
2022/08/07 03:43:43;;;;;;;26.15;16.48;;;13.80;99.90;;;;;;5034603;28;20200;-68
2022/08/07 03:46:10;;;;;;;19.30;15.80;;;13.80;99.90;;;;;;5034499;28;20215;-68
2022/08/07 03:48:37;;;;;;;25.50;15.63;;;13.80;99.90;;;;;;5023941;28;20203;-67
2022/08/07 03:51:07;;;;;;;19.48;14.95;;;13.80;99.90;;;;;;5043103;28;20272;-67
2022/08/07 03:53:34;;;;;;;23.60;16.92;;;13.90;99.90;;;;;;5042900;28;20205;-69
2022/08/07 03:56:02;;;;;;;18.83;14.60;;;14.00;99.90;;;;;;5027722;28;20226;-68
2022/08/07 03:58:29;;;;;;;19.13;13.52;;;14.10;99.90;;;;;;5041172;28;20224;-68
2022/08/07 04:00:57;;;;;;;21.92;14.68;;;14.10;99.90;;;;;;5047497;28;20208;-68
2022/08/07 04:03:24;;;;;;;19.20;15.70;;;14.10;99.90;;;;;;5052315;28;20193;-67
2022/08/07 04:05:52;;;;;;;19.25;15.48;;;14.10;99.90;;;;;;5048977;28;20231;-67
2022/08/07 04:08:20;;;;;;;19.35;15.18;;;14.00;99.90;;;;;;5037792;28;20360;-68
2022/08/07 04:10:48;;;;;;;20.85;16.15;;;14.10;99.90;;;;;;5041231;28;20277;-68
2022/08/07 04:13:16;;;;;;;18.70;14.85;;;14.10;99.90;;;;;;5045446;28;20258;-68
2022/08/07 04:15:44;;;;;;;22.92;15.80;;;14.10;99.90;;;;;;5053333;28;20228;-68
2022/08/07 04:18:13;;;;;;;19.55;15.90;;;14.10;99.90;;;;;;5051047;28;20206;-68
2022/08/07 04:20:40;;;;;;;19.52;15.45;;;14.20;99.90;;;;;;5054281;28;20204;-68
2022/08/07 04:23:07;;;;;;;17.55;13.80;;;14.20;99.90;;;;;;5058318;28;20199;-67
2022/08/07 04:25:37;;;;;;;21.92;15.60;;;14.20;99.90;;;;;;5054728;28;20314;-69
2022/08/07 04:28:05;;;;;;;18.48;14.95;;;14.20;99.90;;;;;;5058671;28;20224;-67
2022/08/07 04:30:32;;;;;;;22.73;18.42;;;14.30;99.90;;;;;;5050258;28;20223;-67
2022/08/07 04:32:59;;;;;;;20.90;17.45;;;14.30;99.90;;;;;;5057487;28;20235;-66
2022/08/07 04:35:27;;;;;;;20.88;17.58;;;14.30;99.90;;;;;;5048327;28;20228;-68
2022/08/07 04:37:53;;;;;;;25.40;18.35;;;14.30;99.90;;;;;;5047265;28;20213;-69
2022/08/07 04:40:21;;;;;;;18.65;14.80;;;14.40;99.90;;;;;;5049986;28;20214;-68
2022/08/07 04:42:49;;;;;;;22.90;17.23;;;14.40;99.90;;;;;;5045103;28;20207;-67
2022/08/07 04:45:17;;;;;;;20.63;15.38;;;14.50;99.90;;;;;;5052862;28;20227;-68
2022/08/07 04:47:55;;;;;;;24.17;16.38;;;14.60;99.90;;;;;;5039572;28;20254;-67
2022/08/07 04:50:30;;;;;;;23.48;16.02;;;14.70;99.90;;;;;;5034152;28;20193;-68
2022/08/07 04:53:04;;;;;;;21.70;17.02;;;14.80;99.90;;;;;;5037472;28;20204;-68
2022/08/07 04:55:36;;;;;;;25.27;15.90;;;14.90;99.90;;;;;;5037485;28;20223;-68
2022/08/07 04:58:13;;;;;;;23.08;17.60;;;15.00;99.90;;;;;;5025347;28;20231;-68
2022/08/07 05:00:47;;;;;;;17.65;13.90;;;15.20;99.90;;;;;;5026270;28;20206;-70
2022/08/07 05:03:21;;;;;;;17.88;14.32;;;15.70;99.90;;;;;;5030325;28;20252;-68
2022/08/07 05:05:53;;;;;;;16.38;13.50;;;16.50;99.90;;;;;;5044890;28;20320;-69
2022/08/07 05:08:26;;;;;;;13.80;11.57;;;17.30;99.90;;;;;;5033777;28;20223;-69
2022/08/07 05:11:01;;;;;;;15.93;12.57;;;18.10;99.90;;;;;;5033161;28;20438;-69
2022/08/07 05:13:35;;;;;;;13.87;12.13;;;18.90;99.90;;;;;;5034857;28;20443;-70
2022/08/07 05:16:05;;;;;;;13.90;11.27;;;19.50;99.90;;;;;;5039710;28;20469;-68
2022/08/07 05:18:35;;;;;;;14.93;12.77;;;20.00;99.90;;;;;;5039329;28;20442;-70
2022/08/07 05:21:05;;;;;;;16.13;11.87;;;20.50;99.90;;;;;;5027858;28;20446;-68
2022/08/07 05:23:38;;;;;;;12.50;11.17;;;21.20;99.90;;;;;;5047023;28;20445;-69
2022/08/07 05:26:10;;;;;;;13.93;12.10;;;21.60;98.70;;;;;;5047113;28;20473;-68
2022/08/07 05:28:39;;;;;;;12.53;11.20;;;22.00;97.20;;;;;;5039240;28;20473;-69
2022/08/07 05:31:07;;;;;;;14.03;11.17;;;22.50;95.50;;;;;;5032606;28;20469;-69
2022/08/07 05:33:36;;;;;;;10.03;8.90;;;23.20;93.50;;;;;;5031331;28;20450;-69
2022/08/07 05:36:04;;;;;;;10.53;9.37;;;23.60;92.50;;;;;;5032562;28;20467;-69
2022/08/07 05:38:31;;;;;;;12.53;9.10;;;23.90;91.30;;;;;;5048872;28;20444;-69
2022/08/07 05:40:58;;;;;;;11.83;8.53;;;24.20;90.10;;;;;;5042133;28;20532;-69
2022/08/07 05:43:25;;;;;;;9.77;8.77;;;24.60;89.00;;;;;;5045463;28;20483;-69
2022/08/07 05:45:54;;;;;;;9.03;7.93;;;25.10;87.50;;;;;;5044083;28;20496;-69
2022/08/07 05:48:22;;;;;;;10.33;8.63;;;25.50;85.20;;;;;;5054670;28;20467;-68
2022/08/07 05:50:49;;;;;;;10.00;8.77;;;25.80;84.50;;;;;;5051260;28;20471;-69
2022/08/07 05:53:16;;;;;;;9.27;8.27;;;25.90;84.00;;;;;;5034979;28;20512;-68
2022/08/07 05:55:43;;;;;;;9.70;7.90;;;25.90;82.50;;;;;;5047139;28;20474;-69
2022/08/07 05:58:11;;;;;;;11.20;8.40;;;26.00;82.20;;;;;;5037964;28;20452;-69
2022/08/07 06:00:39;;;;;;;11.73;8.27;;;26.10;81.10;;;;;;5033902;28;20444;-69
2022/08/07 06:03:09;;;;;;;9.07;8.17;;;26.00;81.10;;;;;;5050964;28;20444;-69
2022/08/07 06:05:36;;;;;;;10.20;8.57;;;26.30;80.70;;;;;;5039534;28;20552;-69
2022/08/07 06:08:04;;;;;;;8.87;7.43;;;26.60;80.30;;;;;;5050794;28;20474;-70
2022/08/07 06:10:31;;;;;;;9.97;8.97;;;26.90;79.10;;;;;;5032400;28;20490;-69
2022/08/07 06:12:59;;;;;;;11.90;7.70;;;27.10;78.40;;;;;;5028225;28;20462;-69
2022/08/07 06:15:27;;;;;;;9.53;8.53;;;26.70;78.60;;;;;;5039301;28;20503;-69
2022/08/07 06:17:54;;;;;;;9.27;8.37;;;26.60;78.90;;;;;;5023631;28;21223;-69
2022/08/07 06:20:23;;;;;;;12.80;10.37;;;26.60;78.90;;;;;;5034024;28;20454;-69
2022/08/07 06:22:52;;;;;;;10.57;9.47;;;26.60;78.70;;;;;;5037041;28;20450;-69
2022/08/07 06:25:19;;;;;;;11.87;10.67;;;26.50;78.70;;;;;;5043156;28;20825;-68
2022/08/07 06:27:46;;;;;;;9.93;8.50;;;26.20;80.40;;;;;;5048763;28;20454;-68
2022/08/07 06:30:13;;;;;;;11.40;9.70;;;26.60;79.80;;;;;;5036704;28;20496;-69
2022/08/07 06:32:40;;;;;;;10.40;9.00;;;27.20;79.20;;;;;;5047313;28;20454;-69
2022/08/07 06:35:08;;;;;;;10.97;7.63;;;27.90;77.80;;;;;;5038556;28;20470;-69
2022/08/07 06:37:37;;;;;;;8.83;7.80;;;28.00;76.30;;;;;;5031758;28;20445;-69
2022/08/07 06:40:04;;;;;;;9.03;8.07;;;28.20;74.60;;;;;;5043688;28;20492;-69
2022/08/07 06:42:36;;;;;;;11.67;8.30;;;28.20;74.40;;;;;;5034930;28;20454;-68
2022/08/07 06:45:08;;;;;;;9.00;8.10;;;27.80;74.30;;;;;;5044465;28;20493;-67
2022/08/07 06:47:35;;;;;;;7.40;6.70;;;27.90;73.80;;;;;;5031807;28;20956;-68
2022/08/07 06:50:03;;;;;;;10.03;9.10;;;28.70;73.10;;;;;;5039574;28;20568;-67
2022/08/07 06:52:34;;;;;;;11.20;7.00;;;28.70;71.40;;;;;;5039910;28;20467;-69
2022/08/07 06:55:04;;;;;;;9.43;7.30;;;28.80;71.70;;;;;;5029932;28;20473;-68
2022/08/07 06:57:33;;;;;;;9.13;8.23;;;28.40;70.70;;;;;;5028485;28;20448;-69
2022/08/07 07:10:42;;;;;;;7.37;6.30;;;28.40;71.40;;;;;;5064384;28;20454;-80
2022/08/07 08:27:38;;;;;;;10.27;5.83;;;32.00;57.70;;;;;;4901937;28;20510;-83
2022/08/07 08:30:07;;;;;;;8.13;5.33;;;32.20;57.50;;;;;;5020684;28;20479;-70
2022/08/07 08:32:38;;;;;;;5.90;5.30;;;32.40;56.40;;;;;;5028016;28;20450;-69
2022/08/07 08:35:08;;;;;;;7.00;5.83;;;32.20;56.20;;;;;;5019029;28;20470;-69
2022/08/07 08:37:37;;;;;;;7.10;5.80;;;32.10;56.50;;;;;;5019183;28;20451;-73
2022/08/07 08:40:13;;;;;;;6.90;4.90;;;32.40;56.20;;;;;;5020169;28;20500;-74
2022/08/07 08:42:49;;;;;;;5.67;4.73;;;32.80;56.40;;;;;;5020807;28;20521;-73
2022/08/07 08:45:22;;;;;;;6.63;6.03;;;32.90;55.50;;;;;;5022132;28;20572;-76
2022/08/07 08:48:00;;;;;;;5.70;5.17;;;32.70;55.30;;;;;;5022871;28;21893;-75
2022/08/07 08:50:31;;;;;;;6.10;5.50;;;32.80;55.20;;;;;;5022407;28;20524;-74
2022/08/07 08:53:06;;;;;;;6.40;5.80;;;32.80;54.70;;;;;;5022373;28;20212;-73
2022/08/07 09:46:19;;;;;;;6.77;6.07;;;30.20;57.40;;;;;;4938024;28;20483;-81
2022/08/07 09:48:59;;;;;;;6.13;4.97;;;29.60;58.10;;;;;;5051110;28;20469;-81
2022/08/07 09:51:40;;;;;;;7.27;5.30;;;30.20;58.00;;;;;;5052014;28;20466;-83
2022/08/07 09:54:15;;;;;;;6.90;4.70;;;30.40;57.50;;;;;;5051008;28;20484;-84
2022/08/07 09:57:06;;;;;;;5.57;5.07;;;30.00;58.10;;;;;;5049731;28;20474;-84
2022/08/07 10:00:03;;;;;;;5.30;4.73;;;29.80;58.10;;;;;;5043220;28;20554;-82
2022/08/07 10:03:12;;;;;;;5.97;4.63;;;30.30;58.20;;;;;;5041344;28;20436;-81
2022/08/07 10:06:05;;;;;;;8.27;5.30;;;30.10;58.00;;;;;;5052265;22;20604;-74
2022/08/07 10:08:54;;;;;;;4.97;4.47;;;30.40;57.60;;;;;;5043824;28;21063;-74
2022/08/07 10:11:37;;;;;;;6.03;5.43;;;30.60;57.60;;;;;;5045666;28;20446;-73
2022/08/07 10:14:18;;;;;;;6.20;4.47;;;30.50;56.30;;;;;;5045818;28;20581;-75
2022/08/07 10:17:07;;;;;;;4.23;3.83;;;30.40;57.00;;;;;;5045565;28;20458;-77
2022/08/07 10:19:46;;;;;;;4.80;4.30;;;30.40;55.90;;;;;;5055086;28;20481;-74
2022/08/07 10:22:37;;;;;;;6.20;4.60;;;30.10;57.30;;;;;;5047473;28;20442;-75
2022/08/07 10:25:17;;;;;;;5.47;4.97;;;29.20;58.10;;;;;;5047734;28;20455;-77
2022/08/07 10:28:00;;;;;;;5.43;4.40;;;29.40;58.60;;;;;;5045106;28;20539;-77
2022/08/07 10:30:36;;;;;;;6.30;4.90;;;29.10;58.40;;;;;;5045962;28;20441;-78
2022/08/07 10:33:41;;;;;;;5.13;4.63;;;29.00;58.60;;;;;;5045695;28;20633;-78
2022/08/07 10:36:26;;;;;;;7.10;4.80;;;29.40;60.20;;;;;;5042829;28;20457;-77
2022/08/07 10:39:05;;;;;;;5.90;4.30;;;30.00;59.00;;;;;;5056565;28;20455;-76
2022/08/07 10:41:35;;;;;;;4.43;4.03;;;30.30;57.50;;;;;;5044856;28;20473;-77
2022/08/07 10:44:12;;;;;;;5.80;5.10;;;29.50;57.20;;;;;;5041493;28;20816;-77
2022/08/07 10:46:49;;;;;;;5.60;4.97;;;28.40;57.90;;;;;;5039328;28;20576;-77
2022/08/07 10:49:26;;;;;;;5.53;4.33;;;27.50;59.10;;;;;;5038935;28;20438;-77
2022/08/07 10:51:57;;;;;;;4.53;4.13;;;26.60;63.00;;;;;;5035609;28;20451;-77
2022/08/07 10:54:36;;;;;;;5.10;4.60;;;26.40;61.70;;;;;;5039035;28;20465;-78
2022/08/07 10:57:12;;;;;;;7.37;4.57;;;25.90;63.10;;;;;;5042549;28;20464;-75
2022/08/07 10:59:57;;;;;;;5.87;3.53;;;25.80;66.10;;;;;;5039140;28;20489;-77
2022/08/07 11:02:31;;;;;;;7.90;6.33;;;25.50;63.60;;;;;;5048239;28;20500;-78
2022/08/07 11:05:21;;;;;;;6.00;4.77;;;25.40;65.30;;;;;;5039492;28;20465;-78
2022/08/07 11:07:59;;;;;;;6.70;5.00;;;24.80;66.80;;;;;;5037619;28;20796;-80
2022/08/07 11:10:33;;;;;;;5.40;4.37;;;24.40;67.60;;;;;;5045632;28;20862;-79
2022/08/07 11:13:06;;;;;;;6.03;5.43;;;24.40;68.80;;;;;;5035053;28;20501;-78
2022/08/07 11:15:38;;;;;;;4.47;4.03;;;24.30;68.50;;;;;;5045460;28;20446;-78
2022/08/07 11:18:15;;;;;;;8.07;6.70;;;24.40;69.40;;;;;;5041818;28;20784;-79
2022/08/07 11:20:49;;;;;;;5.97;5.10;;;25.00;68.20;;;;;;5042120;28;20571;-78
2022/08/07 11:23:22;;;;;;;10.40;5.10;;;25.20;64.50;;;;;;5045631;28;20516;-78
2022/08/07 11:26:03;;;;;;;5.30;4.20;;;25.70;65.70;;;;;;5045150;28;20454;-76
2022/08/07 11:28:36;;;;;;;4.60;3.70;;;25.90;65.30;;;;;;5040883;28;20438;-80
2022/08/07 11:31:10;;;;;;;4.40;3.60;;;25.90;65.30;;;;;;5045559;28;20449;-77
2022/08/07 11:33:44;;;;;;;7.30;4.50;;;26.10;64.90;;;;;;5044811;28;20482;-76
2022/08/07 11:36:27;;;;;;;5.17;4.30;;;25.90;65.10;;;;;;5046426;28;20472;-78
2022/08/07 11:39:09;;;;;;;5.37;4.27;;;25.80;65.10;;;;;;5051967;28;20777;-76
2022/08/07 11:41:46;;;;;;;5.53;5.03;;;25.60;66.80;;;;;;5037652;28;20566;-77
2022/08/07 11:44:23;;;;;;;7.13;4.73;;;25.60;67.10;;;;;;5045326;28;20572;-76
2022/08/07 11:47:04;;;;;;;5.70;4.70;;;25.70;67.20;;;;;;5037840;28;20454;-78
2022/08/07 11:49:55;;;;;;;4.67;4.07;;;25.70;66.90;;;;;;5039688;28;20457;-77
2022/08/07 11:52:40;;;;;;;4.73;4.20;;;25.80;65.90;;;;;;5046850;28;20453;-77
2022/08/07 11:55:13;;;;;;;4.53;3.83;;;25.90;66.00;;;;;;5037573;28;20932;-77
2022/08/07 11:57:46;;;;;;;5.30;3.57;;;25.90;63.50;;;;;;5044203;28;20448;-77
2022/08/07 12:00:17;;;;;;;4.13;3.27;;;25.80;63.30;;;;;;5043063;28;20578;-77
2022/08/07 12:03:18;;;;;;;4.67;4.10;;;26.10;63.00;;;;;;5041622;28;21014;-77
2022/08/07 12:05:56;;;;;;;5.03;3.80;;;26.10;63.50;;;;;;5041499;28;20461;-77
2022/08/07 12:08:26;;;;;;;7.50;5.50;;;26.10;65.80;;;;;;5039052;28;20802;-78
2022/08/07 12:10:59;;;;;;;5.27;4.27;;;26.30;67.00;;;;;;5044102;28;20750;-78
2022/08/07 12:13:35;;;;;;;5.13;3.73;;;26.40;65.20;;;;;;5040834;28;20502;-78
2022/08/07 12:16:05;;;;;;;5.00;4.23;;;26.30;66.10;;;;;;5046304;28;20485;-78
2022/08/07 12:18:37;;;;;;;5.13;3.80;;;26.00;65.40;;;;;;5045427;28;20490;-78
2022/08/07 12:21:20;;;;;;;4.73;3.87;;;25.90;65.70;;;;;;5048705;28;20539;-78
2022/08/07 12:23:54;;;;;;;6.03;4.00;;;26.00;65.90;;;;;;5037066;28;20470;-77
2022/08/07 12:26:28;;;;;;;6.93;4.67;;;26.20;64.80;;;;;;5033332;28;20452;-78
2022/08/07 12:29:06;;;;;;;5.27;4.00;;;26.20;65.10;;;;;;5046866;28;20515;-78
2022/08/07 12:31:38;;;;;;;5.77;4.53;;;26.20;65.90;;;;;;5047867;28;20504;-76
2022/08/07 12:34:14;;;;;;;5.47;4.20;;;26.20;65.50;;;;;;5060411;28;20531;-76
2022/08/07 12:36:49;;;;;;;4.00;3.60;;;26.30;65.40;;;;;;5059411;28;20426;-77
2022/08/07 12:39:19;;;;;;;7.60;4.27;;;26.30;65.80;;;;;;5049979;28;20896;-77
2022/08/07 12:41:46;;;;;;;5.90;3.97;;;26.30;65.00;;;;;;5044053;28;20588;-77
2022/08/07 12:44:17;;;;;;;5.23;3.50;;;26.10;65.30;;;;;;5044587;28;20512;-74
2022/08/07 12:46:57;;;;;;;4.23;3.73;;;25.80;65.10;;;;;;5049783;28;20486;-77
2022/08/07 12:49:33;;;;;;;4.50;3.70;;;25.30;65.00;;;;;;5045771;28;20485;-77
2022/08/07 12:52:05;;;;;;;5.53;3.60;;;25.30;65.50;;;;;;5045565;28;20526;-77
2022/08/07 12:54:43;;;;;;;4.23;3.50;;;25.20;66.30;;;;;;5051855;28;20445;-78
2022/08/07 12:57:12;;;;;;;4.33;3.93;;;25.10;66.20;;;;;;5049347;28;20515;-79
2022/08/07 12:59:40;;;;;;;4.57;4.03;;;25.00;64.90;;;;;;5043437;28;20458;-77
2022/08/07 13:02:41;;;;;;;5.30;4.57;;;25.00;66.40;;;;;;5045987;28;20485;-77
2022/08/07 13:05:18;;;;;;;3.50;3.20;;;25.20;66.00;;;;;;5044487;28;20943;-74
2022/08/07 13:08:11;;;;;;;6.33;4.23;;;25.30;66.00;;;;;;5039753;28;20480;-78
2022/08/07 13:10:51;;;;;;;6.73;4.13;;;25.60;66.20;;;;;;5038937;28;20434;-78
2022/08/07 13:13:32;;;;;;;7.57;4.50;;;25.90;66.90;;;;;;5050223;28;20868;-78
2022/08/07 13:16:12;;;;;;;3.70;3.40;;;25.80;64.90;;;;;;5042595;28;20451;-79
2022/08/07 13:18:48;;;;;;;4.00;3.60;;;25.80;66.60;;;;;;5043078;28;20481;-78
2022/08/07 13:21:20;;;;;;;5.40;4.33;;;26.00;65.80;;;;;;5049964;28;20973;-77
2022/08/07 13:23:54;;;;;;;7.10;4.40;;;26.10;64.50;;;;;;5049865;28;20828;-77
2022/08/07 13:26:29;;;;;;;6.03;4.20;;;25.80;64.90;;;;;;5048426;28;20544;-77
2022/08/07 13:29:03;;;;;;;7.33;6.10;;;25.80;66.90;;;;;;5042046;28;20470;-78
2022/08/07 13:31:40;;;;;;;4.70;4.20;;;25.70;67.90;;;;;;5047573;28;20445;-76
2022/08/07 13:34:23;;;;;;;5.67;4.43;;;25.60;67.80;;;;;;5056032;28;20488;-78
2022/08/07 13:36:55;;;;;;;4.60;3.90;;;25.40;67.10;;;;;;5058181;28;20460;-75
2022/08/07 13:39:28;;;;;;;6.43;4.33;;;25.20;66.90;;;;;;5053658;28;20458;-75
2022/08/07 13:41:57;;;;;;;7.40;3.63;;;25.20;66.80;;;;;;5048606;28;20813;-75
2022/08/07 13:44:28;;;;;;;4.83;4.10;;;25.40;67.00;;;;;;5049613;28;20469;-77
2022/08/07 13:46:59;;;;;;;6.60;3.90;;;25.70;66.20;;;;;;5046073;28;20528;-79
2022/08/07 13:49:33;;;;;;;4.20;3.80;;;25.90;66.10;;;;;;5047426;28;20455;-75
2022/08/07 13:52:04;;;;;;;4.50;3.97;;;25.90;65.30;;;;;;5050053;28;20469;-76
2022/08/07 13:54:32;;;;;;;6.30;4.37;;;25.90;65.10;;;;;;5052690;28;20449;-79
2022/08/07 13:57:02;;;;;;;4.90;3.80;;;25.80;65.10;;;;;;5053092;28;20457;-80
2022/08/07 13:59:32;;;;;;;3.93;3.33;;;25.60;65.40;;;;;;5048091;28;20517;-76
2022/08/07 14:02:07;;;;;;;6.83;3.10;;;25.60;65.40;;;;;;5045489;28;20935;-77
2022/08/07 14:04:48;;;;;;;4.60;3.20;;;25.40;64.60;;;;;;5051284;28;20464;-77
2022/08/07 14:07:17;;;;;;;5.13;3.40;;;25.80;63.60;;;;;;5037412;28;20462;-79
2022/08/07 14:09:46;;;;;;;12.77;9.37;;;26.00;64.40;;;;;;5044406;28;20486;-78
2022/08/07 14:12:26;;;;;;;8.70;5.23;;;26.00;65.60;;;;;;5038647;28;20467;-78
2022/08/07 14:14:59;;;;;;;9.50;6.90;;;26.30;66.10;;;;;;5036422;28;20439;-76
2022/08/07 14:17:30;;;;;;;4.13;3.43;;;26.40;65.00;;;;;;5041781;28;20439;-76
2022/08/07 14:20:04;;;;;;;6.07;3.70;;;26.60;64.30;;;;;;5044744;28;20453;-79
2022/08/07 14:22:32;;;;;;;5.20;4.20;;;26.50;63.90;;;;;;5051290;28;20532;-75
2022/08/07 14:25:02;;;;;;;4.40;4.00;;;26.30;65.10;;;;;;5047896;28;20459;-73
2022/08/07 14:27:34;;;;;;;4.30;3.90;;;26.10;65.70;;;;;;5052170;28;20502;-74
2022/08/07 14:30:04;;;;;;;5.60;3.47;;;26.10;65.30;;;;;;5052716;28;20529;-76
2022/08/07 14:32:41;;;;;;;5.17;4.60;;;26.30;65.30;;;;;;5043095;28;20478;-75
2022/08/07 14:35:10;;;;;;;4.37;3.97;;;26.20;64.70;;;;;;5052509;28;20441;-75
2022/08/07 14:37:43;;;;;;;4.83;4.37;;;26.30;65.00;;;;;;5058620;28;20492;-74
2022/08/07 14:40:14;;;;;;;7.83;4.10;;;26.40;64.30;;;;;;5059759;28;20474;-78
2022/08/07 14:42:42;;;;;;;5.33;4.37;;;26.40;65.20;;;;;;5043843;28;20548;-74
2022/08/07 14:45:11;;;;;;;4.87;4.27;;;26.50;64.80;;;;;;5037414;28;20832;-76
2022/08/07 14:47:41;;;;;;;6.00;4.33;;;26.50;64.30;;;;;;5037922;28;20454;-76
2022/08/07 14:50:17;;;;;;;4.60;4.10;;;26.50;64.50;;;;;;5044101;28;20507;-74
2022/08/07 14:52:46;;;;;;;6.63;4.50;;;26.50;63.60;;;;;;5045545;28;20817;-75
2022/08/07 14:55:15;;;;;;;4.63;4.10;;;26.30;63.80;;;;;;5042288;28;20447;-75
2022/08/07 14:57:44;;;;;;;5.70;4.10;;;26.20;63.70;;;;;;5051020;28;20464;-78
2022/08/07 15:00:12;;;;;;;5.20;3.87;;;26.20;64.10;;;;;;5046416;28;20458;-77
2022/08/07 15:02:46;;;;;;;6.47;3.50;;;26.00;64.80;;;;;;5038196;28;20550;-76
2022/08/07 15:05:17;;;;;;;7.27;4.30;;;26.10;65.40;;;;;;5050590;28;20848;-78
2022/08/07 15:07:46;;;;;;;7.93;4.10;;;26.00;65.30;;;;;;5044524;28;20438;-77
2022/08/07 15:10:18;;;;;;;4.60;3.70;;;25.90;65.60;;;;;;5047455;28;20870;-77
2022/08/07 15:12:46;;;;;;;5.30;2.97;;;26.00;64.80;;;;;;5045721;28;20472;-76
2022/08/07 15:15:23;;;;;;;4.00;3.40;;;26.00;64.40;;;;;;5039979;28;20458;-77
2022/08/07 15:17:58;;;;;;;7.20;3.33;;;26.10;63.70;;;;;;5042165;28;20840;-76